N172ZB KPDX-
Flight info
| Callsign | N172ZB |
|---|---|
| Flight time | N/A |
| Altitude | VFR/035 |
| Route | VFR FF S |
| Aircraft | C172/L-VGD/C |
Departure
| Time | 2026-05-05 22:33 |
|---|---|
| Airport | Portland International Airport (KPDX) |
Arrival
| Time | N/A |
|---|---|
| Airport | - |
| Time | Latitude | Longitude | Altitude | Speed | Heading |
|---|---|---|---|---|---|
| 2026-05-05 22:26 | 45.58473 | -122.57758 | 28 ft | 0 kts | 207° |
| 2026-05-05 22:28 | 45.58469 | -122.57758 | 28 ft | 2 kts | 164° |
| 2026-05-05 22:29 | 45.58470 | -122.57745 | 29 ft | 0 kts | 27° |
| 2026-05-05 22:29 | 45.58481 | -122.57741 | 29 ft | 2 kts | 13° |
| 2026-05-05 22:29 | 45.58487 | -122.57739 | 29 ft | 4 kts | 11° |
| 2026-05-05 22:29 | 45.58511 | -122.57730 | 30 ft | 4 kts | 20° |
| 2026-05-05 22:30 | 45.58562 | -122.57692 | 30 ft | 10 kts | 28° |
| 2026-05-05 22:30 | 45.58594 | -122.57615 | 29 ft | 12 kts | 108° |
| 2026-05-05 22:30 | 45.58548 | -122.57495 | 26 ft | 16 kts | 118° |
| 2026-05-05 22:30 | 45.58485 | -122.57331 | 24 ft | 19 kts | 119° |
| 2026-05-05 22:31 | 45.58427 | -122.57184 | 26 ft | 16 kts | 119° |
| 2026-05-05 22:31 | 45.58378 | -122.57057 | 26 ft | 13 kts | 120° |
| 2026-05-05 22:31 | 45.58334 | -122.56942 | 29 ft | 13 kts | 120° |
| 2026-05-05 22:31 | 45.58285 | -122.56822 | 29 ft | 14 kts | 120° |
| 2026-05-05 22:32 | 45.58289 | -122.56710 | 27 ft | 12 kts | 38° |
| 2026-05-05 22:32 | 45.58362 | -122.56694 | 26 ft | 10 kts | 309° |
| 2026-05-05 22:32 | 45.58437 | -122.56884 | 25 ft | 46 kts | 299° |
| 2026-05-05 22:32 | 45.58655 | -122.57450 | 90 ft | 75 kts | 301° |
| 2026-05-05 22:33 | 45.58907 | -122.58117 | 325 ft | 78 kts | 300° |
| 2026-05-05 22:33 | 45.59166 | -122.58784 | 586 ft | 78 kts | 300° |
| 2026-05-05 22:33 | 45.59327 | -122.59517 | 819 ft | 83 kts | 257° |
| 2026-05-05 22:33 | 45.58939 | -122.60157 | 1084 ft | 81 kts | 220° |
| 2026-05-05 22:34 | 45.58489 | -122.60631 | 1318 ft | 83 kts | 219° |
| 2026-05-05 22:34 | 45.58020 | -122.61098 | 1564 ft | 81 kts | 218° |
| 2026-05-05 22:34 | 45.57563 | -122.61580 | 1777 ft | 82 kts | 218° |
| 2026-05-05 22:34 | 45.57107 | -122.62060 | 1991 ft | 83 kts | 219° |
| 2026-05-05 22:35 | 45.56643 | -122.62547 | 2211 ft | 82 kts | 219° |
| 2026-05-05 22:35 | 45.56172 | -122.63025 | 2398 ft | 84 kts | 219° |
| 2026-05-05 22:35 | 45.55853 | -122.63339 | 2545 ft | 84 kts | 220° |
| 2026-05-05 22:35 | 45.55148 | -122.63948 | 2717 ft | 98 kts | 212° |
| 2026-05-05 22:36 | 45.54727 | -122.64261 | 2788 ft | 106 kts | 210° |
| 2026-05-05 22:36 | 45.53791 | -122.64901 | 2829 ft | 120 kts | 208° |
| 2026-05-05 22:36 | 45.53006 | -122.65399 | 2853 ft | 126 kts | 205° |
| 2026-05-05 22:36 | 45.52200 | -122.65847 | 2958 ft | 121 kts | 206° |
| 2026-05-05 22:37 | 45.51431 | -122.66323 | 2970 ft | 126 kts | 205° |
| 2026-05-05 22:37 | 45.50625 | -122.66737 | 2843 ft | 123 kts | 204° |
| 2026-05-05 22:37 | 45.49832 | -122.67208 | 2646 ft | 123 kts | 206° |
| 2026-05-05 22:37 | 45.49063 | -122.67680 | 2556 ft | 118 kts | 206° |
| 2026-05-05 22:38 | 45.48315 | -122.68078 | 2441 ft | 119 kts | 199° |
| 2026-05-05 22:38 | 45.47557 | -122.68420 | 2417 ft | 110 kts | 202° |
| 2026-05-05 22:38 | 45.46837 | -122.68727 | 2414 ft | 104 kts | 199° |
| 2026-05-05 22:38 | 45.46150 | -122.69005 | 2463 ft | 102 kts | 198° |
| 2026-05-05 22:39 | 45.45460 | -122.69249 | 2542 ft | 98 kts | 193° |
| 2026-05-05 22:39 | 45.44781 | -122.69348 | 2628 ft | 98 kts | 190° |